createdAt,value
2022-10-21T00:01:29.847Z,70.80
2022-10-21T00:06:33.835Z,70.80
2022-10-21T00:11:36.406Z,71.10
2022-10-21T00:16:39.085Z,71.00
2022-10-21T00:21:43.308Z,70.90
2022-10-21T00:26:45.885Z,70.80
2022-10-21T00:31:48.470Z,71.00
2022-10-21T00:36:52.465Z,70.80
2022-10-21T00:41:55.042Z,70.80
2022-10-21T00:46:59.506Z,70.80
2022-10-21T00:52:04.626Z,70.60
2022-10-21T00:57:07.485Z,70.80
2022-10-21T01:02:10.116Z,70.70
2022-10-21T01:07:14.185Z,70.80
2022-10-21T01:12:22.245Z,70.50
2022-10-21T01:17:44.000Z,70.70
2022-10-21T01:23:14.662Z,70.80
2022-10-21T01:28:23.166Z,70.90
2022-10-21T01:33:33.861Z,71.20
2022-10-21T01:38:41.986Z,70.70
2022-10-21T01:43:48.751Z,70.60
2022-10-21T01:48:55.134Z,70.70
2022-10-21T01:54:01.189Z,70.80
2022-10-21T01:59:04.601Z,70.50
2022-10-21T02:04:09.690Z,70.70
2022-10-21T02:09:12.415Z,70.60
2022-10-21T02:14:17.644Z,70.70
2022-10-21T02:19:22.129Z,70.70
2022-10-21T02:24:27.804Z,70.90
2022-10-21T02:29:35.202Z,70.80
2022-10-21T02:34:45.649Z,70.70
2022-10-21T02:39:49.598Z,70.50
2022-10-21T02:44:52.986Z,70.50
2022-10-21T02:49:56.966Z,70.30
2022-10-21T02:54:59.545Z,70.60
2022-10-21T03:00:02.187Z,70.50
2022-10-21T03:05:06.618Z,70.60
2022-10-21T03:10:09.677Z,70.40
2022-10-21T03:15:12.289Z,70.60
2022-10-21T03:20:16.664Z,70.60
2022-10-21T03:25:19.541Z,70.50
2022-10-21T03:30:22.159Z,70.80
2022-10-21T03:35:26.081Z,70.70
2022-10-21T03:40:30.268Z,70.80
2022-10-21T03:45:32.855Z,70.50
2022-10-21T03:50:36.804Z,70.80
2022-10-21T03:55:39.386Z,70.40
2022-10-21T04:00:41.965Z,70.50
2022-10-21T04:05:45.886Z,70.90
2022-10-21T04:10:48.706Z,70.60
2022-10-21T04:15:51.529Z,70.80
2022-10-21T04:20:55.440Z,70.70
2022-10-21T04:25:58.043Z,71.00
2022-10-21T04:31:00.701Z,70.70
2022-10-21T04:36:04.906Z,70.50
2022-10-21T04:41:07.487Z,70.40
2022-10-21T04:46:12.117Z,70.60
2022-10-21T04:51:16.272Z,70.40
2022-10-21T04:56:18.921Z,70.50
2022-10-21T05:01:21.606Z,70.80
2022-10-21T05:06:25.557Z,70.80
2022-10-21T05:11:28.169Z,70.70
2022-10-21T05:16:31.519Z,70.50
2022-10-21T05:21:38.445Z,70.30
2022-10-21T05:26:41.150Z,70.60
2022-10-21T05:31:43.790Z,70.40
2022-10-21T05:36:48.100Z,70.40
2022-10-21T05:41:50.701Z,70.50
2022-10-21T05:46:53.277Z,70.50
2022-10-21T05:51:57.399Z,70.70
2022-10-21T05:57:00.088Z,70.40
2022-10-21T06:02:03.150Z,70.80
2022-10-21T06:07:07.287Z,70.70
2022-10-21T06:12:10.271Z,70.30
2022-10-21T06:17:12.865Z,70.60
2022-10-21T06:22:16.912Z,70.60
2022-10-21T06:27:20.057Z,70.30
2022-10-21T06:32:22.793Z,70.50
2022-10-21T06:37:26.758Z,70.40
2022-10-21T06:42:29.411Z,70.50
2022-10-21T06:47:32.016Z,70.80
2022-10-21T06:52:36.021Z,73.40
2022-10-21T06:57:41.713Z,74.00
2022-10-21T07:02:44.298Z,73.80
2022-10-21T07:07:48.276Z,74.10
2022-10-21T07:12:51.084Z,74.60
2022-10-21T07:17:53.798Z,74.80
2022-10-21T07:22:58.350Z,74.60
2022-10-21T07:28:01.274Z,74.80
2022-10-21T07:33:03.972Z,74.50
2022-10-21T07:38:08.399Z,74.60
2022-10-21T07:43:11.362Z,75.10
2022-10-21T07:48:14.023Z,74.50
2022-10-21T07:53:18.421Z,74.40
2022-10-21T07:58:21.588Z,73.90
2022-10-21T08:03:24.229Z,73.80
2022-10-21T08:08:28.813Z,73.40
2022-10-21T08:13:32.795Z,73.40
2022-10-21T08:18:35.405Z,73.90
2022-10-21T08:23:39.964Z,73.90
2022-10-21T08:28:42.994Z,72.50
2022-10-21T08:33:45.959Z,73.60
2022-10-21T08:38:50.248Z,72.60
2022-10-21T08:43:54.341Z,71.70
2022-10-21T08:48:59.711Z,71.20
2022-10-21T08:54:06.465Z,71.70
2022-10-21T08:59:11.387Z,71.90
2022-10-21T09:04:16.785Z,71.70
2022-10-21T09:09:23.802Z,71.50
2022-10-21T09:14:48.688Z,71.50
2022-10-21T09:19:54.454Z,71.50
2022-10-21T09:24:59.833Z,71.30
2022-10-21T09:30:03.844Z,71.20
2022-10-21T09:35:07.771Z,71.50
2022-10-21T09:40:15.941Z,71.30
2022-10-21T09:45:22.135Z,70.90
2022-10-21T09:50:25.246Z,70.80
2022-10-21T09:55:30.414Z,70.60
2022-10-21T10:00:43.403Z,70.50
2022-10-21T10:05:48.024Z,70.50
2022-10-21T10:10:52.103Z,70.10
2022-10-21T10:15:54.776Z,70.50
2022-10-21T10:21:07.272Z,70.80
2022-10-21T10:26:11.446Z,70.30
2022-10-21T10:31:14.106Z,70.10
2022-10-21T10:36:25.799Z,69.70
2022-10-21T10:41:38.233Z,69.20
2022-10-21T10:46:40.917Z,69.20
2022-10-21T10:51:46.741Z,69.10
2022-10-21T10:56:52.881Z,69.50
2022-10-21T11:02:00.119Z,69.50
2022-10-21T11:07:06.232Z,69.70
2022-10-21T11:12:15.148Z,69.50
2022-10-21T11:17:19.963Z,69.70
2022-10-21T11:22:27.750Z,70.30
2022-10-21T11:27:43.812Z,70.10
2022-10-21T11:32:53.965Z,70.00
2022-10-21T11:38:02.855Z,70.30
2022-10-21T11:43:13.086Z,69.20
2022-10-21T11:48:25.519Z,68.70
2022-10-21T11:53:37.498Z,69.20
2022-10-21T11:58:55.348Z,68.90
2022-10-21T12:04:07.334Z,68.80
2022-10-21T12:09:16.447Z,68.90
2022-10-21T12:14:30.157Z,69.20
2022-10-21T12:19:34.005Z,68.90
2022-10-21T12:24:41.136Z,68.80
2022-10-21T12:29:51.321Z,69.10
2022-10-21T12:34:54.593Z,68.20
2022-10-21T12:40:10.057Z,68.80
2022-10-21T12:45:27.500Z,68.80
2022-10-21T12:50:31.887Z,68.40
2022-10-21T12:55:40.029Z,67.90
2022-10-21T13:00:58.492Z,68.70
2022-10-21T13:06:03.165Z,68.40
2022-10-21T13:11:23.749Z,68.40
2022-10-21T13:16:44.306Z,67.70
2022-10-21T13:21:48.034Z,67.00
2022-10-21T13:26:51.891Z,67.30
2022-10-21T13:32:13.054Z,67.40
2022-10-21T13:37:17.897Z,67.60
2022-10-21T13:42:24.108Z,68.20
2022-10-21T13:47:29.040Z,68.50
2022-10-21T13:52:33.133Z,68.30
2022-10-21T13:57:37.270Z,68.80
2022-10-21T14:02:47.162Z,68.90
2022-10-21T14:07:51.175Z,69.00
2022-10-21T14:12:53.868Z,69.30
2022-10-21T14:17:58.907Z,69.30
2022-10-21T14:23:03.721Z,69.70
2022-10-21T14:28:06.417Z,70.20
2022-10-21T14:33:15.185Z,69.60
2022-10-21T14:38:28.082Z,69.80
2022-10-21T14:43:33.266Z,69.60
2022-10-21T14:48:38.413Z,70.00
2022-10-21T14:53:47.308Z,69.60
2022-10-21T14:58:54.595Z,70.10
2022-10-21T15:03:58.185Z,69.80
2022-10-21T15:09:03.628Z,69.80
2022-10-21T15:14:07.864Z,70.00
2022-10-21T15:19:13.433Z,70.00
2022-10-21T15:24:20.990Z,70.30
2022-10-21T15:29:25.959Z,70.10
2022-10-21T15:34:28.816Z,70.10
2022-10-21T15:39:32.783Z,69.80
2022-10-21T15:44:35.610Z,69.60
2022-10-21T15:49:41.121Z,69.30
2022-10-21T15:54:45.289Z,69.40
2022-10-21T15:59:48.283Z,69.20
2022-10-21T16:04:52.915Z,69.50
2022-10-21T16:09:57.841Z,69.60
2022-10-21T16:15:00.542Z,69.50
2022-10-21T16:20:03.192Z,69.40
2022-10-21T16:25:07.758Z,69.30
2022-10-21T16:30:15.078Z,69.50
2022-10-21T16:35:18.434Z,69.30
2022-10-21T16:40:23.695Z,69.10
2022-10-21T16:45:28.569Z,69.30
2022-10-21T16:50:36.815Z,69.40
2022-10-21T16:55:40.877Z,69.60
2022-10-21T17:00:44.507Z,69.50
2022-10-21T17:05:47.112Z,69.80
2022-10-21T17:10:51.069Z,69.80
2022-10-21T17:15:53.668Z,69.60
2022-10-21T17:20:56.295Z,69.80
2022-10-21T17:26:00.261Z,69.40
2022-10-21T17:31:02.859Z,69.60
2022-10-21T17:36:06.013Z,69.80
2022-10-21T17:41:10.081Z,69.70
2022-10-21T17:46:17.043Z,69.60
2022-10-21T17:51:19.930Z,69.80
2022-10-21T17:56:24.306Z,69.60
2022-10-21T18:01:26.963Z,69.60
2022-10-21T18:06:29.615Z,69.70
2022-10-21T18:11:33.723Z,69.90
2022-10-21T18:16:36.515Z,69.70
2022-10-21T18:21:39.710Z,69.60
2022-10-21T18:26:43.686Z,69.70
2022-10-21T18:31:46.568Z,69.70
2022-10-21T18:36:49.289Z,69.80
2022-10-21T18:41:54.088Z,69.60
2022-10-21T18:46:56.925Z,69.80
2022-10-21T18:51:59.503Z,69.70
2022-10-21T18:57:05.580Z,69.60
2022-10-21T19:02:09.748Z,69.60
2022-10-21T19:07:14.238Z,69.50
2022-10-21T19:12:22.404Z,69.50
2022-10-21T19:17:27.333Z,69.90
2022-10-21T19:27:39.561Z,69.30
2022-10-21T19:32:42.661Z,69.50
2022-10-21T19:37:45.314Z,69.50
2022-10-21T19:42:49.242Z,69.60
2022-10-21T19:47:53.056Z,69.60
2022-10-21T19:52:55.850Z,69.70
2022-10-21T19:58:00.538Z,69.50
2022-10-21T20:03:03.301Z,69.50
2022-10-21T20:08:05.884Z,69.20
2022-10-21T20:13:09.829Z,69.60
2022-10-21T20:18:12.405Z,69.30
2022-10-21T20:23:15.027Z,69.10
2022-10-21T20:28:19.145Z,69.00
2022-10-21T20:33:21.717Z,68.80
2022-10-21T20:38:24.503Z,68.80
2022-10-21T20:43:28.445Z,69.00
2022-10-21T20:48:31.265Z,69.30
2022-10-21T20:53:34.749Z,69.30
2022-10-21T20:58:39.509Z,69.00
2022-10-21T21:03:42.839Z,69.40
2022-10-21T21:08:49.265Z,69.10
2022-10-21T21:13:57.493Z,69.30
2022-10-21T21:19:02.821Z,69.10
2022-10-21T21:24:05.610Z,69.10
2022-10-21T21:29:09.675Z,69.10
2022-10-21T21:34:12.500Z,69.00
2022-10-21T21:44:23.957Z,69.20
2022-10-21T21:49:26.546Z,68.90
2022-10-21T21:54:29.113Z,69.40
2022-10-21T21:59:33.029Z,68.80
2022-10-21T22:04:37.666Z,69.30
2022-10-21T22:09:40.271Z,69.30
2022-10-21T22:14:44.235Z,69.10
2022-10-21T22:19:49.586Z,69.20
2022-10-21T22:24:55.568Z,69.20
2022-10-21T22:29:59.488Z,68.90
2022-10-21T22:35:02.738Z,68.80
2022-10-21T22:40:06.079Z,69.00
2022-10-21T22:45:10.467Z,69.00
2022-10-21T22:50:13.082Z,68.90
2022-10-21T22:55:15.710Z,69.10
2022-10-21T23:00:20.537Z,69.20
2022-10-21T23:05:23.195Z,68.90
2022-10-21T23:10:25.793Z,68.90
2022-10-21T23:15:29.749Z,69.10
2022-10-21T23:20:32.753Z,68.90
2022-10-21T23:25:35.397Z,68.90
2022-10-21T23:30:40.427Z,68.90
2022-10-21T23:35:43.006Z,69.00
2022-10-21T23:40:45.967Z,68.80
2022-10-21T23:45:50.249Z,69.00
2022-10-21T23:50:52.834Z,68.90
2022-10-21T23:55:55.444Z,69.00
